WMT3047 LROP-LGAV
Flight info
| Callsign | WMT3047 |
|---|---|
| Flight time | 1h 14m |
| Altitude | 33000 |
| Route | POLUN DCT TIMUR N181 NIKTI DCT KOROS/N0448F320 UT162 NEVRA |
| Aircraft | A321/M-SDE3FGHIRWY/LB1 |
Departure
| Time | 2026-05-04 17:30 |
|---|---|
| Airport | Bucharest Henri Coandă International Airport (LROP) |
Arrival
| Time | 2026-05-04 18:45 |
|---|---|
| Airport | Athens Eleftherios Venizelos International Airport (LGAV) |
| Time | Latitude | Longitude | Altitude | Speed | Heading |
|---|---|---|---|---|---|
| 2026-05-04 16:45 | 44.57017 | 26.08134 | 323 ft | 0 kts | 354° |
| 2026-05-04 17:21 | 44.56988 | 26.08138 | 321 ft | 4 kts | 354° |
| 2026-05-04 17:21 | 44.56942 | 26.08135 | 322 ft | 4 kts | 54° |
| 2026-05-04 17:22 | 44.56934 | 26.08103 | 319 ft | 2 kts | 84° |
| 2026-05-04 17:22 | 44.56934 | 26.08095 | 322 ft | 0 kts | 84° |
| 2026-05-04 17:25 | 44.56935 | 26.08116 | 322 ft | 3 kts | 84° |
| 2026-05-04 17:25 | 44.56941 | 26.08195 | 322 ft | 5 kts | 84° |
| 2026-05-04 17:26 | 44.56950 | 26.08311 | 322 ft | 7 kts | 84° |
| 2026-05-04 17:26 | 44.56899 | 26.08506 | 322 ft | 8 kts | 77° |
| 2026-05-04 17:27 | 44.57008 | 26.08538 | 322 ft | 9 kts | 354° |
| 2026-05-04 17:27 | 44.57149 | 26.08517 | 322 ft | 11 kts | 355° |
| 2026-05-04 17:28 | 44.57310 | 26.08492 | 322 ft | 12 kts | 354° |
| 2026-05-04 17:29 | 44.57586 | 26.08454 | 323 ft | 14 kts | 355° |
| 2026-05-04 17:29 | 44.57732 | 26.09345 | 322 ft | 102 kts | 84° |
| 2026-05-04 17:30 | 44.58141 | 26.13978 | 1220 ft | 180 kts | 82° |
| 2026-05-04 17:31 | 44.58326 | 26.17651 | 2152 ft | 205 kts | 102° |
| 2026-05-04 17:31 | 44.54438 | 26.20206 | 2621 ft | 260 kts | 203° |
| 2026-05-04 17:32 | 44.52098 | 26.16449 | 3739 ft | 269 kts | 253° |
| 2026-05-04 17:33 | 44.50455 | 26.08734 | 5729 ft | 281 kts | 257° |
| 2026-05-04 17:33 | 44.49883 | 26.06085 | 6369 ft | 287 kts | 257° |
| 2026-05-04 17:34 | 44.48055 | 25.97937 | 8312 ft | 297 kts | 257° |
| 2026-05-04 17:34 | 44.47422 | 25.95175 | 8966 ft | 300 kts | 257° |
| 2026-05-04 17:35 | 44.44504 | 25.87140 | 10361 ft | 335 kts | 241° |
| 2026-05-04 17:35 | 44.41874 | 25.81287 | 10614 ft | 375 kts | 240° |
| 2026-05-04 17:35 | 44.40452 | 25.78136 | 10872 ft | 389 kts | 240° |
| 2026-05-04 17:36 | 44.38994 | 25.74921 | 11358 ft | 394 kts | 240° |
| 2026-05-04 17:36 | 44.37515 | 25.71669 | 11927 ft | 398 kts | 239° |
| 2026-05-04 17:36 | 44.36023 | 25.68388 | 12493 ft | 402 kts | 239° |
| 2026-05-04 17:36 | 44.34514 | 25.65069 | 13056 ft | 406 kts | 239° |
| 2026-05-04 17:37 | 44.32994 | 25.61726 | 13629 ft | 410 kts | 239° |
| 2026-05-04 17:37 | 44.31457 | 25.58345 | 14149 ft | 414 kts | 238° |
| 2026-05-04 17:37 | 44.29909 | 25.54945 | 14689 ft | 417 kts | 238° |
| 2026-05-04 17:37 | 44.28347 | 25.51518 | 15228 ft | 419 kts | 238° |
| 2026-05-04 17:38 | 44.26776 | 25.48074 | 15781 ft | 422 kts | 238° |
| 2026-05-04 17:38 | 44.25193 | 25.44613 | 16330 ft | 424 kts | 238° |
| 2026-05-04 17:38 | 44.23606 | 25.41143 | 16913 ft | 426 kts | 238° |
| 2026-05-04 17:38 | 44.22008 | 25.37649 | 17470 ft | 428 kts | 238° |
| 2026-05-04 17:39 | 44.18780 | 25.30604 | 18456 ft | 435 kts | 238° |
| 2026-05-04 17:39 | 44.17142 | 25.27037 | 18890 ft | 438 kts | 238° |
| 2026-05-04 17:39 | 44.15520 | 25.23509 | 19350 ft | 439 kts | 238° |
| 2026-05-04 17:40 | 44.13871 | 25.19928 | 19810 ft | 440 kts | 238° |
| 2026-05-04 17:40 | 44.12217 | 25.16336 | 20291 ft | 441 kts | 238° |
| 2026-05-04 17:40 | 44.10557 | 25.12734 | 20752 ft | 442 kts | 238° |
| 2026-05-04 17:40 | 44.08893 | 25.09133 | 21200 ft | 443 kts | 238° |
| 2026-05-04 17:41 | 44.07220 | 25.05518 | 21659 ft | 444 kts | 239° |
| 2026-05-04 17:41 | 44.05544 | 25.01903 | 22101 ft | 445 kts | 239° |
| 2026-05-04 17:41 | 44.03860 | 24.98283 | 22538 ft | 447 kts | 239° |
| 2026-05-04 17:41 | 44.02172 | 24.94653 | 22965 ft | 448 kts | 239° |
| 2026-05-04 17:42 | 44.00480 | 24.91015 | 23390 ft | 449 kts | 239° |
| 2026-05-04 17:42 | 43.98782 | 24.87365 | 23771 ft | 450 kts | 239° |
| 2026-05-04 17:42 | 43.97081 | 24.83714 | 24101 ft | 451 kts | 239° |
| 2026-05-04 17:42 | 43.95372 | 24.80050 | 24439 ft | 452 kts | 239° |
| 2026-05-04 17:43 | 43.93658 | 24.76387 | 24769 ft | 453 kts | 238° |
| 2026-05-04 17:43 | 43.91935 | 24.72715 | 25088 ft | 455 kts | 238° |
| 2026-05-04 17:43 | 43.90209 | 24.69034 | 25403 ft | 456 kts | 238° |
| 2026-05-04 17:43 | 43.88479 | 24.65350 | 25702 ft | 457 kts | 238° |
| 2026-05-04 17:44 | 43.86742 | 24.61656 | 26004 ft | 458 kts | 238° |
| 2026-05-04 17:44 | 43.85002 | 24.57958 | 26342 ft | 458 kts | 238° |
| 2026-05-04 17:44 | 43.83261 | 24.54260 | 26654 ft | 459 kts | 238° |
| 2026-05-04 17:44 | 43.81537 | 24.50596 | 26952 ft | 460 kts | 238° |
| 2026-05-04 17:45 | 43.79789 | 24.46882 | 27240 ft | 462 kts | 238° |
| 2026-05-04 17:45 | 43.78007 | 24.43100 | 27540 ft | 463 kts | 237° |
| 2026-05-04 17:45 | 43.76269 | 24.39430 | 27912 ft | 462 kts | 237° |
| 2026-05-04 17:45 | 43.74493 | 24.35741 | 28331 ft | 460 kts | 234° |
| 2026-05-04 17:46 | 43.72317 | 24.32522 | 28727 ft | 459 kts | 219° |
| 2026-05-04 17:46 | 43.69622 | 24.30197 | 29123 ft | 458 kts | 204° |
| 2026-05-04 17:46 | 43.66584 | 24.28940 | 29511 ft | 457 kts | 188° |
| 2026-05-04 17:46 | 43.63417 | 24.28582 | 29864 ft | 456 kts | 184° |
| 2026-05-04 17:47 | 43.60259 | 24.28326 | 30255 ft | 454 kts | 184° |
| 2026-05-04 17:47 | 43.57107 | 24.28075 | 30580 ft | 453 kts | 184° |
| 2026-05-04 17:47 | 43.53963 | 24.27826 | 30900 ft | 452 kts | 184° |
| 2026-05-04 17:47 | 43.50823 | 24.27577 | 31184 ft | 452 kts | 184° |
| 2026-05-04 17:48 | 43.47678 | 24.27328 | 31457 ft | 453 kts | 184° |
| 2026-05-04 17:48 | 43.44527 | 24.27075 | 31647 ft | 455 kts | 184° |
| 2026-05-04 17:48 | 43.41364 | 24.26817 | 31911 ft | 455 kts | 184° |
| 2026-05-04 17:48 | 43.38206 | 24.26558 | 32220 ft | 455 kts | 184° |
| 2026-05-04 17:49 | 43.35049 | 24.26300 | 32516 ft | 454 kts | 184° |
| 2026-05-04 17:49 | 43.31896 | 24.26043 | 32809 ft | 454 kts | 184° |
| 2026-05-04 17:49 | 43.28746 | 24.25792 | 33038 ft | 454 kts | 184° |
| 2026-05-04 17:49 | 43.25591 | 24.25541 | 33100 ft | 454 kts | 184° |
| 2026-05-04 17:50 | 43.19294 | 24.25034 | 33101 ft | 453 kts | 184° |
| 2026-05-04 17:50 | 43.12991 | 24.24535 | 33110 ft | 453 kts | 184° |
| 2026-05-04 17:51 | 43.06689 | 24.24031 | 33104 ft | 454 kts | 184° |
| 2026-05-04 17:51 | 43.00376 | 24.23533 | 33116 ft | 454 kts | 184° |
| 2026-05-04 17:52 | 42.94101 | 24.23040 | 33104 ft | 456 kts | 184° |
| 2026-05-04 17:52 | 42.87761 | 24.22526 | 33109 ft | 457 kts | 184° |
| 2026-05-04 17:53 | 42.81415 | 24.22015 | 33115 ft | 457 kts | 184° |
| 2026-05-04 17:53 | 42.75058 | 24.21509 | 33115 ft | 458 kts | 184° |
| 2026-05-04 17:54 | 42.68696 | 24.21011 | 33120 ft | 458 kts | 184° |
| 2026-05-04 17:54 | 42.62340 | 24.20514 | 33127 ft | 458 kts | 184° |
| 2026-05-04 17:55 | 42.55975 | 24.20016 | 33119 ft | 458 kts | 184° |
| 2026-05-04 17:55 | 42.49616 | 24.19513 | 33129 ft | 458 kts | 184° |
| 2026-05-04 17:56 | 42.43257 | 24.19013 | 33122 ft | 457 kts | 184° |
| 2026-05-04 17:56 | 42.36906 | 24.18514 | 33115 ft | 457 kts | 183° |
| 2026-05-04 17:57 | 42.30556 | 24.18016 | 33113 ft | 457 kts | 183° |
| 2026-05-04 17:57 | 42.24205 | 24.17517 | 33108 ft | 457 kts | 183° |
| 2026-05-04 17:58 | 42.17857 | 24.17017 | 33114 ft | 457 kts | 183° |
| 2026-05-04 17:58 | 42.11511 | 24.16525 | 33110 ft | 457 kts | 183° |
| 2026-05-04 17:59 | 42.05169 | 24.16038 | 33115 ft | 456 kts | 183° |
| 2026-05-04 18:00 | 41.95698 | 24.15317 | 33103 ft | 457 kts | 184° |
| 2026-05-04 18:00 | 41.89327 | 24.14834 | 33101 ft | 459 kts | 183° |
| 2026-05-04 18:01 | 41.82941 | 24.14340 | 33094 ft | 461 kts | 184° |
| 2026-05-04 18:01 | 41.76530 | 24.13833 | 33109 ft | 462 kts | 184° |
| 2026-05-04 18:02 | 41.66917 | 24.13094 | 33125 ft | 461 kts | 183° |
| 2026-05-04 18:02 | 41.60515 | 24.12616 | 33126 ft | 461 kts | 183° |
| 2026-05-04 18:03 | 41.54112 | 24.12577 | 33118 ft | 460 kts | 172° |
| 2026-05-04 18:03 | 41.47878 | 24.14464 | 33105 ft | 460 kts | 165° |
| 2026-05-04 18:04 | 41.42725 | 24.16203 | 33091 ft | 460 kts | 166° |
| 2026-05-04 18:05 | 41.33403 | 24.19299 | 33102 ft | 460 kts | 165° |
| 2026-05-04 18:05 | 41.27196 | 24.21375 | 33094 ft | 459 kts | 165° |
| 2026-05-04 18:06 | 41.17897 | 24.24472 | 33090 ft | 459 kts | 165° |
| 2026-05-04 18:06 | 41.11699 | 24.26521 | 33086 ft | 458 kts | 165° |
| 2026-05-04 18:07 | 41.05514 | 24.28580 | 33085 ft | 458 kts | 165° |
| 2026-05-04 18:07 | 40.99370 | 24.30620 | 33082 ft | 458 kts | 165° |
| 2026-05-04 18:08 | 40.93183 | 24.32676 | 33079 ft | 458 kts | 165° |
| 2026-05-04 18:08 | 40.87005 | 24.34722 | 33080 ft | 458 kts | 165° |
| 2026-05-04 18:09 | 40.74644 | 24.38780 | 33092 ft | 458 kts | 165° |
| 2026-05-04 18:10 | 40.68460 | 24.40820 | 33061 ft | 459 kts | 165° |
| 2026-05-04 18:10 | 40.62252 | 24.42866 | 33052 ft | 460 kts | 165° |
| 2026-05-04 18:11 | 40.56028 | 24.44892 | 33056 ft | 461 kts | 165° |
| 2026-05-04 18:11 | 40.49797 | 24.46919 | 33068 ft | 461 kts | 165° |
| 2026-05-04 18:12 | 40.43565 | 24.48950 | 33071 ft | 462 kts | 165° |
| 2026-05-04 18:12 | 40.37331 | 24.50983 | 33074 ft | 462 kts | 165° |
| 2026-05-04 18:13 | 40.31092 | 24.53011 | 33069 ft | 462 kts | 165° |
| 2026-05-04 18:14 | 40.21719 | 24.56036 | 33067 ft | 463 kts | 165° |
| 2026-05-04 18:14 | 40.15505 | 24.58050 | 33069 ft | 463 kts | 165° |
| 2026-05-04 18:15 | 40.02988 | 24.62077 | 33083 ft | 463 kts | 165° |
| 2026-05-04 18:16 | 39.96726 | 24.64090 | 33086 ft | 464 kts | 165° |
| 2026-05-04 18:16 | 39.90462 | 24.66100 | 33092 ft | 464 kts | 165° |
| 2026-05-04 18:17 | 39.81058 | 24.69125 | 33086 ft | 465 kts | 165° |
| 2026-05-04 18:18 | 39.71639 | 24.72121 | 33096 ft | 465 kts | 165° |
| 2026-05-04 18:18 | 39.65354 | 24.74114 | 33102 ft | 465 kts | 165° |
| 2026-05-04 18:19 | 39.55949 | 24.77104 | 33112 ft | 464 kts | 165° |
| 2026-05-04 18:19 | 39.49683 | 24.79089 | 33114 ft | 463 kts | 165° |
| 2026-05-04 18:20 | 39.43419 | 24.81058 | 33109 ft | 463 kts | 165° |
| 2026-05-04 18:20 | 39.37159 | 24.83029 | 33105 ft | 463 kts | 165° |
| 2026-05-04 18:21 | 39.30898 | 24.85008 | 33110 ft | 463 kts | 165° |
| 2026-05-04 18:21 | 39.24638 | 24.86984 | 33113 ft | 463 kts | 165° |
| 2026-05-04 18:22 | 39.18374 | 24.88946 | 33113 ft | 464 kts | 165° |
| 2026-05-04 18:22 | 39.12089 | 24.90536 | 33109 ft | 464 kts | 176° |
| 2026-05-04 18:23 | 39.05667 | 24.89882 | 33110 ft | 464 kts | 194° |
| 2026-05-04 18:23 | 38.99486 | 24.87524 | 33105 ft | 465 kts | 197° |
| 2026-05-04 18:24 | 38.93287 | 24.85128 | 33107 ft | 465 kts | 197° |
| 2026-05-04 18:24 | 38.87080 | 24.82749 | 33108 ft | 466 kts | 197° |
| 2026-05-04 18:25 | 38.80869 | 24.80378 | 33111 ft | 466 kts | 197° |
| 2026-05-04 18:25 | 38.74661 | 24.78000 | 33118 ft | 465 kts | 197° |
| 2026-05-04 18:26 | 38.68458 | 24.75625 | 33124 ft | 465 kts | 197° |
| 2026-05-04 18:26 | 38.62258 | 24.73264 | 33119 ft | 464 kts | 197° |
| 2026-05-04 18:27 | 38.59203 | 24.72099 | 32924 ft | 465 kts | 197° |
| 2026-05-04 18:27 | 38.56071 | 24.70904 | 31752 ft | 476 kts | 197° |
| 2026-05-04 18:27 | 38.52886 | 24.69687 | 30932 ft | 478 kts | 196° |
| 2026-05-04 18:27 | 38.49679 | 24.68465 | 29922 ft | 483 kts | 196° |
| 2026-05-04 18:28 | 38.46473 | 24.67246 | 28944 ft | 477 kts | 196° |
| 2026-05-04 18:28 | 38.43307 | 24.66042 | 28022 ft | 475 kts | 196° |
| 2026-05-04 18:28 | 38.40114 | 24.64828 | 26931 ft | 482 kts | 196° |
| 2026-05-04 18:28 | 38.36899 | 24.63607 | 25913 ft | 480 kts | 197° |
| 2026-05-04 18:29 | 38.33735 | 24.62409 | 25425 ft | 471 kts | 197° |
| 2026-05-04 18:29 | 38.30597 | 24.61222 | 25216 ft | 470 kts | 197° |
| 2026-05-04 18:29 | 38.27468 | 24.60039 | 25086 ft | 469 kts | 197° |
| 2026-05-04 18:29 | 38.24347 | 24.58859 | 25130 ft | 468 kts | 197° |
| 2026-05-04 18:30 | 38.18318 | 24.55852 | 25139 ft | 468 kts | 214° |
| 2026-05-04 18:30 | 38.15614 | 24.53549 | 24950 ft | 465 kts | 215° |
| 2026-05-04 18:30 | 38.12956 | 24.51242 | 24364 ft | 461 kts | 215° |
| 2026-05-04 18:31 | 38.10331 | 24.48971 | 23428 ft | 452 kts | 215° |
| 2026-05-04 18:31 | 38.07746 | 24.46746 | 22203 ft | 446 kts | 215° |
| 2026-05-04 18:31 | 38.05196 | 24.44561 | 21040 ft | 438 kts | 215° |
| 2026-05-04 18:31 | 38.02687 | 24.42421 | 19926 ft | 431 kts | 215° |
| 2026-05-04 18:32 | 38.00214 | 24.40322 | 18886 ft | 424 kts | 215° |
| 2026-05-04 18:32 | 37.97775 | 24.38261 | 17820 ft | 418 kts | 215° |
| 2026-05-04 18:32 | 37.95377 | 24.36221 | 16721 ft | 412 kts | 215° |
| 2026-05-04 18:32 | 37.93042 | 24.34234 | 15657 ft | 407 kts | 215° |
| 2026-05-04 18:33 | 37.90707 | 24.32248 | 14736 ft | 402 kts | 215° |
| 2026-05-04 18:33 | 37.88366 | 24.30258 | 14359 ft | 406 kts | 215° |
| 2026-05-04 18:33 | 37.86024 | 24.28266 | 14181 ft | 405 kts | 215° |
| 2026-05-04 18:33 | 37.83688 | 24.26274 | 14123 ft | 404 kts | 216° |
| 2026-05-04 18:34 | 37.81571 | 24.23973 | 14134 ft | 401 kts | 232° |
| 2026-05-04 18:34 | 37.80062 | 24.21032 | 13741 ft | 400 kts | 244° |
| 2026-05-04 18:34 | 37.78784 | 24.17971 | 13073 ft | 387 kts | 245° |
| 2026-05-04 18:34 | 37.77537 | 24.14952 | 12539 ft | 387 kts | 245° |
| 2026-05-04 18:35 | 37.76293 | 24.11950 | 12088 ft | 383 kts | 245° |
| 2026-05-04 18:35 | 37.75057 | 24.08980 | 11635 ft | 380 kts | 245° |
| 2026-05-04 18:35 | 37.73829 | 24.06042 | 11177 ft | 376 kts | 245° |
| 2026-05-04 18:35 | 37.72618 | 24.03131 | 10741 ft | 373 kts | 245° |
| 2026-05-04 18:36 | 37.71418 | 24.00272 | 10289 ft | 362 kts | 245° |
| 2026-05-04 18:36 | 37.70260 | 23.97512 | 9773 ft | 351 kts | 245° |
| 2026-05-04 18:36 | 37.69126 | 23.94824 | 9203 ft | 343 kts | 245° |
| 2026-05-04 18:36 | 37.68009 | 23.92205 | 8644 ft | 335 kts | 245° |
| 2026-05-04 18:37 | 37.66924 | 23.89691 | 8185 ft | 316 kts | 245° |
| 2026-05-04 18:37 | 37.65890 | 23.87333 | 7804 ft | 298 kts | 245° |
| 2026-05-04 18:37 | 37.64915 | 23.85138 | 7451 ft | 287 kts | 245° |
| 2026-05-04 18:37 | 37.63933 | 23.82939 | 7114 ft | 288 kts | 245° |
| 2026-05-04 18:38 | 37.62949 | 23.80737 | 6775 ft | 287 kts | 248° |
| 2026-05-04 18:38 | 37.62392 | 23.78402 | 6416 ft | 273 kts | 274° |
| 2026-05-04 18:38 | 37.62725 | 23.76128 | 6121 ft | 258 kts | 298° |
| 2026-05-04 18:38 | 37.63619 | 23.74230 | 6117 ft | 251 kts | 315° |
| 2026-05-04 18:39 | 37.65033 | 23.73028 | 6091 ft | 247 kts | 342° |
| 2026-05-04 18:39 | 37.66728 | 23.72810 | 5879 ft | 247 kts | 2° |
| 2026-05-04 18:39 | 37.68442 | 23.72986 | 5678 ft | 248 kts | 4° |
| 2026-05-04 18:39 | 37.70159 | 23.73203 | 5467 ft | 248 kts | 4° |
| 2026-05-04 18:40 | 37.71874 | 23.73433 | 5227 ft | 249 kts | 7° |
| 2026-05-04 18:40 | 37.73484 | 23.74209 | 4902 ft | 250 kts | 31° |
| 2026-05-04 18:40 | 37.74896 | 23.75526 | 4563 ft | 253 kts | 34° |
| 2026-05-04 18:40 | 37.76303 | 23.76871 | 4215 ft | 253 kts | 34° |
| 2026-05-04 18:41 | 37.77710 | 23.78204 | 3875 ft | 252 kts | 34° |
| 2026-05-04 18:41 | 37.79114 | 23.79531 | 3534 ft | 251 kts | 34° |
| 2026-05-04 18:41 | 37.80487 | 23.80829 | 3205 ft | 243 kts | 34° |
| 2026-05-04 18:41 | 37.81814 | 23.82085 | 2901 ft | 232 kts | 34° |
| 2026-05-04 18:42 | 37.83068 | 23.83274 | 2571 ft | 219 kts | 35° |
| 2026-05-04 18:42 | 37.84233 | 23.84377 | 2304 ft | 199 kts | 35° |
| 2026-05-04 18:42 | 37.85274 | 23.85363 | 2069 ft | 175 kts | 36° |
| 2026-05-04 18:42 | 37.86221 | 23.86260 | 1825 ft | 167 kts | 36° |
| 2026-05-04 18:43 | 37.87140 | 23.87131 | 1594 ft | 164 kts | 36° |
| 2026-05-04 18:43 | 37.88049 | 23.87993 | 1370 ft | 163 kts | 36° |
| 2026-05-04 18:43 | 37.88955 | 23.88852 | 1143 ft | 162 kts | 36° |
| 2026-05-04 18:43 | 37.89860 | 23.89708 | 914 ft | 162 kts | 37° |
| 2026-05-04 18:44 | 37.90762 | 23.90567 | 716 ft | 162 kts | 37° |
| 2026-05-04 18:44 | 37.91069 | 23.90857 | 626 ft | 162 kts | 37° |
| 2026-05-04 18:44 | 37.92558 | 23.92280 | 315 ft | 155 kts | 37° |
| 2026-05-04 18:44 | 37.93309 | 23.92991 | 292 ft | 111 kts | 37° |
| 2026-05-04 18:45 | 37.93726 | 23.93388 | 295 ft | 40 kts | 38° |
| 2026-05-04 18:45 | 37.93884 | 23.93590 | 294 ft | 25 kts | 67° |
| 2026-05-04 18:45 | 37.93950 | 23.93753 | 298 ft | 11 kts | 66° |
| 2026-05-04 18:45 | 37.93952 | 23.93758 | 298 ft | 0 kts | 66° |
| 2026-05-04 18:47 | 37.93950 | 23.93773 | 298 ft | 5 kts | 99° |
| 2026-05-04 18:47 | 37.93925 | 23.93813 | 299 ft | 7 kts | 146° |
| 2026-05-04 18:47 | 37.93876 | 23.93802 | 300 ft | 10 kts | 214° |
| 2026-05-04 18:47 | 37.93799 | 23.93741 | 303 ft | 16 kts | 216° |
| 2026-05-04 18:48 | 37.93717 | 23.93660 | 299 ft | 12 kts | 218° |
| 2026-05-04 18:48 | 37.93647 | 23.93593 | 299 ft | 13 kts | 216° |
| 2026-05-04 18:48 | 37.93569 | 23.93518 | 302 ft | 14 kts | 216° |
| 2026-05-04 18:48 | 37.93499 | 23.93454 | 302 ft | 9 kts | 217° |
| 2026-05-04 18:49 | 37.93437 | 23.93439 | 301 ft | 9 kts | 152° |
| 2026-05-04 18:49 | 37.93398 | 23.93503 | 302 ft | 9 kts | 128° |
| 2026-05-04 18:49 | 37.93354 | 23.93571 | 302 ft | 10 kts | 129° |
| 2026-05-04 18:49 | 37.93310 | 23.93646 | 301 ft | 11 kts | 124° |
| 2026-05-04 18:50 | 37.93263 | 23.93728 | 302 ft | 12 kts | 126° |
| 2026-05-04 18:50 | 37.93209 | 23.93815 | 301 ft | 13 kts | 128° |
| 2026-05-04 18:50 | 37.93150 | 23.93909 | 303 ft | 14 kts | 128° |
| 2026-05-04 18:50 | 37.93097 | 23.94004 | 303 ft | 7 kts | 109° |
| 2026-05-04 18:51 | 37.93094 | 23.94011 | 304 ft | 2 kts | 112° |
| 2026-05-04 18:51 | 37.93070 | 23.94052 | 302 ft | 7 kts | 129° |
| 2026-05-04 18:51 | 37.93036 | 23.94103 | 301 ft | 8 kts | 129° |
| 2026-05-04 18:51 | 37.92998 | 23.94165 | 304 ft | 9 kts | 127° |
| 2026-05-04 18:52 | 37.92998 | 23.94231 | 304 ft | 7 kts | 43° |
| 2026-05-04 18:52 | 37.93026 | 23.94259 | 304 ft | 7 kts | 38° |
| 2026-05-04 18:52 | 37.93045 | 23.94277 | 302 ft | 2 kts | 38° |
| 2026-05-04 18:52 | 37.93048 | 23.94280 | 302 ft | 0 kts | 38° |
| 2026-05-04 19:11 | 38.35326 | 24.53369 | 23407 ft | 413 kts | 22° |
| 2026-05-04 19:11 | 44.57596 | 26.19432 | 2296 ft | 221 kts | 137° |
| 2026-05-04 19:11 | 44.57729 | 26.09308 | 320 ft | 86 kts | 84° |
| 2026-05-04 19:12 | 44.57869 | 26.11187 | 325 ft | 171 kts | 84° |